createdAt,value
2022-12-03T00:01:14.408Z,102244.81
2022-12-03T00:03:41.639Z,102247.41
2022-12-03T00:06:08.839Z,102250.00
2022-12-03T00:08:35.832Z,102248.28
2022-12-03T00:11:02.960Z,102260.34
2022-12-03T00:13:30.025Z,102254.31
2022-12-03T00:15:57.083Z,102254.28
2022-12-03T00:18:24.100Z,102247.34
2022-12-03T00:20:51.017Z,102250.03
2022-12-03T00:23:17.974Z,102243.09
2022-12-03T00:25:47.321Z,102239.66
2022-12-03T00:28:14.501Z,102246.56
2022-12-03T00:30:41.750Z,102247.41
2022-12-03T00:33:09.130Z,102248.28
2022-12-03T00:35:36.432Z,102250.94
2022-12-03T00:38:03.510Z,102251.81
2022-12-03T00:40:30.471Z,102248.31
2022-12-03T00:42:57.673Z,102251.81
2022-12-03T00:45:24.731Z,102244.00
2022-12-03T00:47:51.624Z,102248.31
2022-12-03T00:50:18.732Z,102260.47
2022-12-03T00:52:45.713Z,102255.25
2022-12-03T00:55:12.738Z,102257.84
2022-12-03T00:57:39.900Z,102267.38
2022-12-03T01:00:07.634Z,102260.47
2022-12-03T01:02:34.743Z,102265.63
2022-12-03T01:05:01.934Z,102265.63
2022-12-03T01:07:31.473Z,102270.81
2022-12-03T01:09:58.603Z,102270.81
2022-12-03T01:12:25.525Z,102272.53
2022-12-03T01:14:52.956Z,102270.81
2022-12-03T01:17:20.229Z,102274.28
2022-12-03T01:19:48.636Z,102282.81
2022-12-03T01:22:15.805Z,102282.72
2022-12-03T01:24:42.816Z,102284.41
2022-12-03T01:27:09.791Z,102282.63
2022-12-03T01:29:36.732Z,102281.72
2022-12-03T01:32:19.625Z,102286.09
2022-12-03T01:34:54.898Z,102282.69
2022-12-03T01:37:25.430Z,102282.63
2022-12-03T01:39:54.797Z,102285.16
2022-12-03T01:42:25.885Z,102284.38
2022-12-03T01:44:56.570Z,102280.88
2022-12-03T01:47:31.269Z,102282.56
2022-12-03T01:50:27.417Z,102285.16
2022-12-03T01:52:58.440Z,102286.03
2022-12-03T01:55:28.311Z,102295.53
2022-12-03T01:57:59.560Z,102288.50
2022-12-03T02:00:28.018Z,102289.31
2022-12-03T02:03:02.190Z,102292.03
2022-12-03T02:05:32.035Z,102293.78
2022-12-03T02:08:01.562Z,102292.81
2022-12-03T02:10:32.801Z,102297.75
2022-12-03T02:13:10.875Z,102295.97
2022-12-03T02:15:40.540Z,102295.19
2022-12-03T02:18:09.058Z,102296.00
2022-12-03T02:20:52.024Z,102289.13
2022-12-03T02:23:31.653Z,102293.59
2022-12-03T02:25:58.647Z,102304.91
2022-12-03T02:28:25.561Z,102305.72
2022-12-03T02:30:52.489Z,102281.38
2022-12-03T02:33:19.573Z,102292.56
2022-12-03T02:35:46.466Z,102288.25
2022-12-03T02:38:39.810Z,102295.22
2022-12-03T02:41:10.434Z,102300.44
2022-12-03T02:43:38.388Z,102291.78
2022-12-03T02:46:07.980Z,102296.06
2022-12-03T02:48:37.818Z,102301.22
2022-12-03T02:51:08.782Z,102300.34
2022-12-03T02:53:42.729Z,102295.78
2022-12-03T02:56:12.254Z,102296.81
2022-12-03T02:58:41.731Z,102306.41
2022-12-03T03:01:09.719Z,102292.44
2022-12-03T03:03:38.060Z,102303.88
2022-12-03T03:06:07.195Z,102295.19
2022-12-03T03:08:35.268Z,102304.81
2022-12-03T03:11:02.867Z,102311.66
2022-12-03T03:13:32.618Z,102313.31
2022-12-03T03:16:00.015Z,102314.91
2022-12-03T03:18:27.040Z,102314.25
2022-12-03T03:20:54.120Z,102316.00
2022-12-03T03:23:23.757Z,102309.81
2022-12-03T03:26:01.939Z,102323.44
2022-12-03T03:28:30.885Z,102323.63
2022-12-03T03:31:00.797Z,102314.81
2022-12-03T03:33:30.166Z,102318.44
2022-12-03T03:36:00.614Z,102319.34
2022-12-03T03:38:29.878Z,102324.41
2022-12-03T03:40:59.705Z,102323.56
2022-12-03T03:43:27.281Z,102334.53
2022-12-03T03:45:54.813Z,102324.03
2022-12-03T03:48:22.559Z,102326.66
2022-12-03T03:50:51.010Z,102326.53
2022-12-03T03:53:19.815Z,102333.41
2022-12-03T03:55:47.137Z,102332.53
2022-12-03T03:58:14.302Z,102329.91
2022-12-03T04:00:46.815Z,102339.34
2022-12-03T04:03:14.112Z,102336.06
2022-12-03T04:05:41.131Z,102332.56
2022-12-03T04:08:08.178Z,102338.59
2022-12-03T04:10:53.650Z,102336.94
2022-12-03T04:13:20.718Z,102348.19
2022-12-03T04:15:48.030Z,102344.69
2022-12-03T04:18:34.204Z,102340.63
2022-12-03T04:21:30.218Z,102351.00
2022-12-03T04:23:57.341Z,102350.09
2022-12-03T04:26:43.137Z,102349.06
2022-12-03T04:29:10.280Z,102342.03
2022-12-03T04:31:56.625Z,102355.31
2022-12-03T04:34:42.666Z,102355.28
2022-12-03T04:37:09.882Z,102356.22
2022-12-03T04:39:37.030Z,102356.34
2022-12-03T04:42:05.905Z,102366.03
2022-12-03T04:44:33.746Z,102364.31
2022-12-03T04:47:07.215Z,102368.50
2022-12-03T04:49:36.198Z,102378.66
2022-12-03T04:52:03.206Z,102378.34
2022-12-03T04:54:30.357Z,102361.44
2022-12-03T04:56:57.407Z,102382.00
2022-12-03T04:59:25.644Z,102378.44
2022-12-03T05:01:52.736Z,102383.50
2022-12-03T05:04:19.867Z,102395.47
2022-12-03T05:06:46.877Z,102377.25
2022-12-03T05:09:13.939Z,102387.28
2022-12-03T05:11:41.770Z,102392.31
2022-12-03T05:14:09.403Z,102390.41
2022-12-03T05:16:36.880Z,102388.94
2022-12-03T05:19:04.899Z,102397.53
2022-12-03T05:21:31.961Z,102392.81
2022-12-03T05:23:59.038Z,102402.44
2022-12-03T05:26:26.137Z,102401.78
2022-12-03T05:28:53.145Z,102405.44
2022-12-03T05:31:20.317Z,102406.50
2022-12-03T05:33:47.450Z,102411.00
2022-12-03T05:36:14.542Z,102397.84
2022-12-03T05:38:41.588Z,102404.00
2022-12-03T05:41:28.594Z,102412.00
2022-12-03T05:43:55.714Z,102415.72
2022-12-03T05:46:23.166Z,102412.56
2022-12-03T05:48:50.372Z,102408.13
2022-12-03T05:51:17.276Z,102409.69
2022-12-03T05:53:44.341Z,102421.66
2022-12-03T05:56:11.338Z,102424.16
2022-12-03T05:58:38.677Z,102415.56
2022-12-03T06:01:05.705Z,102419.28
2022-12-03T06:03:32.842Z,102412.53
2022-12-03T06:06:00.003Z,102405.09
2022-12-03T06:08:26.968Z,102415.97
2022-12-03T06:10:54.068Z,102429.97
2022-12-03T06:13:20.946Z,102412.56
2022-12-03T06:15:47.984Z,102409.00
2022-12-03T06:18:15.083Z,102405.56
2022-12-03T06:20:42.023Z,102412.69
2022-12-03T06:23:09.265Z,102412.63
2022-12-03T06:25:36.227Z,102409.34
2022-12-03T06:28:03.571Z,102418.94
2022-12-03T06:30:30.608Z,102411.34
2022-12-03T06:32:57.966Z,102415.03
2022-12-03T06:35:24.961Z,102412.47
2022-12-03T06:37:51.916Z,102407.53
2022-12-03T06:40:19.382Z,102407.78
2022-12-03T06:42:46.466Z,102409.63
2022-12-03T06:45:13.439Z,102407.25
2022-12-03T06:47:40.455Z,102407.38
2022-12-03T06:50:08.768Z,102406.56
2022-12-03T06:52:36.238Z,102408.34
2022-12-03T06:55:03.742Z,102398.03
2022-12-03T06:57:31.224Z,102391.03
2022-12-03T06:59:58.306Z,102393.72
2022-12-03T07:02:25.326Z,102407.59
2022-12-03T07:04:52.509Z,102399.81
2022-12-03T07:07:19.576Z,102395.53
2022-12-03T07:09:46.603Z,102398.19
2022-12-03T07:12:13.574Z,102380.84
2022-12-03T07:14:40.599Z,102393.00
2022-12-03T07:17:07.545Z,102393.84
2022-12-03T07:19:34.544Z,102393.88
2022-12-03T07:22:01.615Z,102393.00
2022-12-03T07:24:29.002Z,102393.91
2022-12-03T07:26:56.078Z,102388.69
2022-12-03T07:29:23.127Z,102402.56
2022-12-03T07:31:50.241Z,102391.28
2022-12-03T07:34:17.331Z,102397.34
2022-12-03T07:36:44.555Z,102395.63
2022-12-03T07:39:11.500Z,102399.94
2022-12-03T07:41:38.406Z,102396.47
2022-12-03T07:44:10.857Z,102393.00
2022-12-03T07:46:42.411Z,102388.66
2022-12-03T07:49:09.880Z,102390.38
2022-12-03T07:51:36.983Z,102389.53
2022-12-03T07:54:04.486Z,102389.53
2022-12-03T07:56:31.408Z,102401.69
2022-12-03T07:59:01.767Z,102393.00
2022-12-03T08:01:28.880Z,102391.31
2022-12-03T08:03:56.118Z,102388.69
2022-12-03T08:06:23.619Z,102390.41
2022-12-03T08:08:50.717Z,102386.09
2022-12-03T08:11:17.673Z,102380.00
2022-12-03T08:13:44.691Z,102386.06
2022-12-03T08:16:24.606Z,102383.44
2022-12-03T08:18:58.420Z,102377.41
2022-12-03T08:21:36.796Z,102378.22
2022-12-03T08:24:30.456Z,102386.81
2022-12-03T08:26:57.557Z,102384.13
2022-12-03T08:29:24.768Z,102376.22
2022-12-03T08:31:55.330Z,102377.81
2022-12-03T08:34:26.600Z,102376.88
2022-12-03T08:37:17.265Z,102383.03
2022-12-03T08:40:04.610Z,102370.16
2022-12-03T08:43:01.832Z,102375.47
2022-12-03T08:45:45.102Z,102378.97
2022-12-03T08:48:34.094Z,102384.03
2022-12-03T08:51:25.618Z,102384.00
2022-12-03T08:54:15.966Z,102378.88
2022-12-03T08:56:48.544Z,102374.44
2022-12-03T08:59:26.168Z,102381.28
2022-12-03T09:02:01.268Z,102370.72
2022-12-03T09:04:53.370Z,102380.97
2022-12-03T09:07:22.541Z,102379.22
2022-12-03T09:10:00.225Z,102372.19
2022-12-03T09:12:32.869Z,102362.78
2022-12-03T09:15:09.419Z,102374.88
2022-12-03T09:17:43.816Z,102376.59
2022-12-03T09:20:16.163Z,102372.09
2022-12-03T09:22:43.430Z,102372.41
2022-12-03T09:25:10.718Z,102367.47
2022-12-03T09:27:37.802Z,102378.56
2022-12-03T09:30:05.786Z,102372.66
2022-12-03T09:32:32.845Z,102363.78
2022-12-03T09:34:59.898Z,102373.22
2022-12-03T09:37:27.070Z,102374.84
2022-12-03T09:39:54.056Z,102367.00
2022-12-03T09:42:21.039Z,102372.16
2022-12-03T09:44:48.092Z,102369.78
2022-12-03T09:47:15.602Z,102367.19
2022-12-03T09:49:45.506Z,102372.28
2022-12-03T09:52:26.753Z,102380.03
2022-12-03T09:54:55.256Z,102379.25
2022-12-03T09:57:22.482Z,102381.13
2022-12-03T09:59:49.455Z,102369.31
2022-12-03T10:02:25.466Z,102375.38
2022-12-03T10:04:53.780Z,102370.03
2022-12-03T10:07:25.361Z,102362.22
2022-12-03T10:09:52.936Z,102364.81
2022-12-03T10:12:24.828Z,102368.19
2022-12-03T10:14:53.478Z,102368.97
2022-12-03T10:17:20.746Z,102380.31
2022-12-03T10:19:48.447Z,102383.06
2022-12-03T10:22:15.501Z,102376.25
2022-12-03T10:24:44.828Z,102370.16
2022-12-03T10:27:38.560Z,102377.00
2022-12-03T10:30:16.144Z,102376.09
2022-12-03T10:32:47.027Z,102370.72
2022-12-03T10:35:41.291Z,102379.41
2022-12-03T10:38:18.741Z,102371.59
2022-12-03T10:45:24.925Z,102372.66
2022-12-03T10:48:25.529Z,102364.84
2022-12-03T10:51:03.998Z,102372.47
2022-12-03T10:53:33.201Z,102372.56
2022-12-03T10:56:14.051Z,102366.56
2022-12-03T10:58:43.155Z,102365.50
2022-12-03T11:01:25.004Z,102373.50
2022-12-03T11:03:53.255Z,102381.34
2022-12-03T11:06:36.132Z,102383.16
2022-12-03T11:09:08.783Z,102381.31
2022-12-03T11:11:37.111Z,102384.69
2022-12-03T11:14:05.708Z,102376.75
2022-12-03T11:16:41.953Z,102382.09
2022-12-03T11:19:20.829Z,102385.66
2022-12-03T11:22:05.967Z,102376.06
2022-12-03T11:24:35.026Z,102382.25
2022-12-03T11:27:06.180Z,102385.78
2022-12-03T11:29:51.739Z,102379.72
2022-12-03T11:32:45.308Z,102376.25
2022-12-03T11:42:38.444Z,102382.44
2022-12-03T11:49:00.427Z,102370.16
2022-12-03T11:51:26.107Z,102360.66
2022-12-03T11:53:56.381Z,102372.75
2022-12-03T11:56:29.830Z,102379.59
2022-12-03T11:59:06.560Z,102365.66
2022-12-03T12:01:43.966Z,102371.78
2022-12-03T12:04:30.754Z,102381.34
2022-12-03T12:07:02.037Z,102372.75
2022-12-03T12:09:53.441Z,102383.03
2022-12-03T12:13:01.726Z,102381.13
2022-12-03T12:15:47.368Z,102386.28
2022-12-03T12:18:55.191Z,102389.84
2022-12-03T12:21:50.861Z,102384.81
2022-12-03T12:24:53.774Z,102381.28
2022-12-03T12:27:46.159Z,102376.06
2022-12-03T12:34:20.783Z,102389.16
2022-12-03T12:36:48.926Z,102395.22
2022-12-03T12:39:19.642Z,102390.00
2022-12-03T12:41:51.543Z,102396.09
2022-12-03T12:44:23.355Z,102388.34
2022-12-03T12:46:55.947Z,102384.88
2022-12-03T12:49:29.623Z,102388.38
2022-12-03T12:51:56.701Z,102395.38
2022-12-03T12:54:29.850Z,102378.00
2022-12-03T12:56:58.683Z,102380.53
2022-12-03T13:03:59.562Z,102374.41
2022-12-03T13:09:26.279Z,102369.38
2022-12-03T13:11:59.417Z,102379.81
2022-12-03T13:14:37.990Z,102378.00
2022-12-03T13:17:29.276Z,102408.31
2022-12-03T13:20:17.587Z,102382.38
2022-12-03T13:22:45.806Z,102398.78
2022-12-03T13:25:59.293Z,102364.16
2022-12-03T13:28:24.875Z,102384.09
2022-12-03T13:30:51.923Z,102393.63
2022-12-03T13:33:33.363Z,102375.41
2022-12-03T13:36:03.505Z,102404.88
2022-12-03T13:38:30.675Z,102404.13
2022-12-03T13:41:02.994Z,102400.63
2022-12-03T13:43:32.625Z,102398.84
2022-12-03T13:46:02.429Z,102383.28
2022-12-03T13:49:02.034Z,102400.53
2022-12-03T13:51:37.991Z,102364.09
2022-12-03T13:54:48.810Z,102402.16
2022-12-03T13:57:23.591Z,102390.91
2022-12-03T14:00:06.262Z,102390.00
2022-12-03T14:02:42.915Z,102377.91
2022-12-03T14:05:46.432Z,102403.84
2022-12-03T14:08:15.855Z,102393.50
2022-12-03T14:10:46.005Z,102398.72
2022-12-03T14:13:17.073Z,102417.81
2022-12-03T14:15:57.304Z,102386.59
2022-12-03T14:18:34.961Z,102378.69
2022-12-03T14:23:53.730Z,102375.28
2022-12-03T14:26:20.833Z,102400.44
2022-12-03T14:28:47.841Z,102407.38
2022-12-03T14:31:15.042Z,102415.19
2022-12-03T14:33:42.141Z,102415.25
2022-12-03T14:36:09.823Z,102410.88
2022-12-03T14:38:38.793Z,102406.50
2022-12-03T14:41:28.981Z,102421.28
2022-12-03T14:43:56.028Z,102411.78
2022-12-03T14:46:26.097Z,102413.41
2022-12-03T14:48:54.858Z,102409.09
2022-12-03T14:51:31.192Z,102403.88
2022-12-03T14:54:01.461Z,102411.63
2022-12-03T14:56:29.115Z,102415.81
2022-12-03T14:58:56.150Z,102399.34
2022-12-03T15:01:23.865Z,102424.44
2022-12-03T15:03:51.497Z,102420.19
2022-12-03T15:06:18.745Z,102426.28
2022-12-03T15:08:48.933Z,102419.38
2022-12-03T15:11:19.425Z,102412.56
2022-12-03T15:14:36.170Z,102423.72
2022-12-03T15:18:01.115Z,102417.72
2022-12-03T15:20:29.358Z,102413.44
2022-12-03T15:22:57.825Z,102413.41
2022-12-03T15:25:28.866Z,102413.31
2022-12-03T15:27:55.993Z,102405.63
2022-12-03T15:30:23.582Z,102433.41
2022-12-03T15:32:50.759Z,102431.66
2022-12-03T15:35:20.637Z,102426.44
2022-12-03T15:37:47.598Z,102421.25
2022-12-03T15:40:15.988Z,102422.84
2022-12-03T15:42:43.143Z,102425.66
2022-12-03T15:45:14.922Z,102410.84
2022-12-03T15:47:42.372Z,102422.97
2022-12-03T15:50:09.934Z,102422.91
2022-12-03T15:52:36.899Z,102417.59
2022-12-03T15:55:04.127Z,102426.34
2022-12-03T15:57:31.358Z,102427.22
2022-12-03T15:59:58.382Z,102419.47
2022-12-03T16:02:25.540Z,102434.25
2022-12-03T16:04:55.454Z,102429.88
2022-12-03T16:07:22.471Z,102433.28
2022-12-03T16:09:49.545Z,102424.56
2022-12-03T16:12:16.474Z,102438.59
2022-12-03T16:14:43.516Z,102436.00
2022-12-03T16:17:10.511Z,102439.50
2022-12-03T16:19:37.482Z,102425.66
2022-12-03T16:22:04.648Z,102440.50
2022-12-03T16:24:31.848Z,102443.94
2022-12-03T16:26:59.153Z,102446.56
2022-12-03T16:29:31.798Z,102442.28
2022-12-03T16:31:59.043Z,102458.75
2022-12-03T16:34:26.030Z,102449.22
2022-12-03T16:37:00.577Z,102449.25
2022-12-03T16:39:27.795Z,102445.81
2022-12-03T16:41:57.091Z,102446.66
2022-12-03T16:44:35.854Z,102472.72
2022-12-03T16:47:03.087Z,102445.81
2022-12-03T16:49:33.085Z,102446.72
2022-12-03T16:51:59.972Z,102444.09
2022-12-03T16:54:26.997Z,102445.81
2022-12-03T16:56:54.108Z,102451.91
2022-12-03T16:59:21.258Z,102484.06
2022-12-03T17:01:48.583Z,102449.34
2022-12-03T17:04:16.091Z,102452.78
2022-12-03T17:06:45.884Z,102471.03
2022-12-03T17:09:12.885Z,102458.84
2022-12-03T17:11:40.034Z,102433.72
2022-12-03T17:14:10.320Z,102453.69
2022-12-03T17:16:37.304Z,102451.06
2022-12-03T17:19:04.378Z,102442.38
2022-12-03T17:21:35.278Z,102441.47
2022-12-03T17:24:05.764Z,102456.19
2022-12-03T17:26:32.751Z,102461.34
2022-12-03T17:29:02.758Z,102459.53
2022-12-03T17:31:42.291Z,102466.47
2022-12-03T17:34:12.360Z,102463.03
2022-12-03T17:36:43.016Z,102456.91
2022-12-03T17:39:10.913Z,102466.44
2022-12-03T17:41:38.152Z,102462.09
2022-12-03T17:44:09.891Z,102460.34
2022-12-03T17:46:38.980Z,102452.56
2022-12-03T17:49:06.346Z,102447.22
2022-12-03T17:51:33.537Z,102462.94
2022-12-03T17:54:03.770Z,102463.91
2022-12-03T17:56:35.249Z,102452.66
2022-12-03T17:59:15.623Z,102440.53
2022-12-03T18:01:48.138Z,102460.50
2022-12-03T18:04:17.845Z,102460.56
2022-12-03T18:06:51.656Z,102461.44
2022-12-03T18:09:29.163Z,102449.25
2022-12-03T18:12:05.349Z,102425.00
2022-12-03T18:17:22.067Z,102454.53
2022-12-03T18:19:55.102Z,102464.03
2022-12-03T18:22:22.356Z,102488.31
2022-12-03T18:24:51.896Z,102483.97
2022-12-03T18:27:23.913Z,102477.91
2022-12-03T18:29:54.670Z,102456.25
2022-12-03T18:32:29.302Z,102481.44
2022-12-03T18:35:09.798Z,102467.56
2022-12-03T18:37:38.139Z,102465.81
2022-12-03T18:40:16.564Z,102471.88
2022-12-03T18:42:46.677Z,102469.25
2022-12-03T18:45:17.115Z,102492.69
2022-12-03T18:47:47.311Z,102481.44
2022-12-03T18:50:15.435Z,102443.25
2022-12-03T18:52:45.726Z,102484.00
2022-12-03T18:55:18.964Z,102477.03
2022-12-03T18:57:48.657Z,102472.69
2022-12-03T19:00:16.161Z,102480.47
2022-12-03T19:03:02.432Z,102494.38
2022-12-03T19:05:32.905Z,102487.44
2022-12-03T19:08:00.494Z,102482.28
2022-12-03T19:10:28.000Z,102489.22
2022-12-03T19:12:55.099Z,102498.75
2022-12-03T19:15:25.175Z,102493.53
2022-12-03T19:17:52.269Z,102484.88
2022-12-03T19:20:19.575Z,102494.44
2022-12-03T19:22:46.667Z,102489.25
2022-12-03T19:25:13.598Z,102497.06
2022-12-03T19:27:40.636Z,102482.28
2022-12-03T19:30:08.394Z,102500.44
2022-12-03T19:32:35.813Z,102507.34
2022-12-03T19:35:05.393Z,102484.81
2022-12-03T19:37:36.145Z,102497.81
2022-12-03T19:40:03.416Z,102496.06
2022-12-03T19:42:31.351Z,102498.69
2022-12-03T19:44:58.403Z,102490.84
2022-12-03T19:47:28.333Z,102491.75
2022-12-03T19:49:56.400Z,102489.16
2022-12-03T19:52:24.935Z,102499.50
2022-12-03T19:54:51.959Z,102481.25
2022-12-03T19:57:23.536Z,102490.78
2022-12-03T19:59:50.869Z,102487.38
2022-12-03T20:02:17.989Z,102498.63
2022-12-03T20:04:44.995Z,102504.78
2022-12-03T20:07:14.737Z,102490.03
2022-12-03T20:09:41.678Z,102497.88
2022-12-03T20:12:28.559Z,102493.53
2022-12-03T20:14:58.624Z,102492.66
2022-12-03T20:17:25.496Z,102497.00
2022-12-03T20:19:55.539Z,102495.22
2022-12-03T20:22:22.807Z,102478.75
2022-12-03T20:24:49.697Z,102510.84
2022-12-03T20:27:22.480Z,102490.88
2022-12-03T20:29:50.000Z,102509.03
2022-12-03T20:32:17.213Z,102502.97
2022-12-03T20:34:45.100Z,102508.19
2022-12-03T20:37:15.134Z,102498.63
2022-12-03T20:39:42.138Z,102503.84
2022-12-03T20:42:10.573Z,102497.69
2022-12-03T20:44:38.527Z,102502.06
2022-12-03T20:47:05.662Z,102494.25
2022-12-03T20:49:33.038Z,102510.72
2022-12-03T20:52:02.852Z,102505.50
2022-12-03T20:54:37.317Z,102495.00
2022-12-03T20:57:06.580Z,102492.44
2022-12-03T20:59:36.595Z,102506.38
2022-12-03T21:02:08.883Z,102510.81
2022-12-03T21:04:38.765Z,102496.00
2022-12-03T21:07:05.719Z,102504.66
2022-12-03T21:09:32.621Z,102488.25
2022-12-03T21:11:59.535Z,102498.66
2022-12-03T21:14:29.411Z,102505.63
2022-12-03T21:17:08.553Z,102503.91
2022-12-03T21:19:36.587Z,102493.47
2022-12-03T21:22:07.217Z,102490.00
2022-12-03T21:24:34.756Z,102495.19
2022-12-03T21:27:01.883Z,102484.72
2022-12-03T21:29:28.847Z,102495.13
2022-12-03T21:31:55.802Z,102490.78
2022-12-03T21:34:22.703Z,102495.00
2022-12-03T21:36:49.827Z,102495.78
2022-12-03T21:39:19.830Z,102495.84
2022-12-03T21:42:35.094Z,102494.03
2022-12-03T21:44:38.545Z,102500.97
2022-12-03T21:47:11.763Z,102495.84
2022-12-03T21:49:41.233Z,102488.13
2022-12-03T21:52:08.208Z,102488.94
2022-12-03T21:54:35.141Z,102496.81
2022-12-03T21:57:02.107Z,102506.38
2022-12-03T21:59:29.138Z,102496.72
2022-12-03T22:01:56.195Z,102497.75
2022-12-03T22:04:23.121Z,102496.03
2022-12-03T22:06:50.038Z,102490.78
2022-12-03T22:09:26.159Z,102485.66
2022-12-03T22:12:00.837Z,102498.69
2022-12-03T22:14:28.949Z,102469.16
2022-12-03T22:16:59.538Z,102504.69
2022-12-03T22:19:30.914Z,102492.50
2022-12-03T22:22:00.796Z,102499.31
2022-12-03T22:24:27.678Z,102490.50
2022-12-03T22:26:56.869Z,102488.81
2022-12-03T22:29:24.340Z,102474.09
2022-12-03T22:31:51.658Z,102481.22
2022-12-03T22:34:21.945Z,102489.03
2022-12-03T22:36:52.726Z,102467.31
2022-12-03T22:39:24.939Z,102494.28
2022-12-03T22:41:52.103Z,102481.28
2022-12-03T22:44:19.721Z,102498.63
2022-12-03T22:46:46.786Z,102477.75
2022-12-03T22:49:17.696Z,102483.88
2022-12-03T22:51:49.431Z,102483.91
2022-12-03T22:54:22.320Z,102476.94
2022-12-03T22:56:51.385Z,102492.53
2022-12-03T22:59:18.855Z,102494.25
2022-12-03T23:01:49.095Z,102492.44
2022-12-03T23:04:16.434Z,102492.44
2022-12-03T23:06:44.002Z,102484.59
2022-12-03T23:09:11.072Z,102483.72
2022-12-03T23:11:40.692Z,102502.94
2022-12-03T23:14:07.912Z,102504.69
2022-12-03T23:16:34.914Z,102492.59
2022-12-03T23:19:08.012Z,102503.06
2022-12-03T23:21:40.020Z,102510.03
2022-12-03T23:24:09.091Z,102506.53
2022-12-03T23:26:38.108Z,102496.16
2022-12-03T23:29:08.887Z,102506.59
2022-12-03T23:31:39.693Z,102484.03
2022-12-03T23:34:08.098Z,102497.91
2022-12-03T23:36:35.626Z,102484.06
2022-12-03T23:39:04.816Z,102517.00
2022-12-03T23:41:31.889Z,102510.06
2022-12-03T23:43:59.525Z,102522.19
2022-12-03T23:46:27.860Z,102508.34
2022-12-03T23:48:55.394Z,102502.28
2022-12-03T23:56:10.554Z,102497.09
2022-12-03T23:58:38.794Z,102508.31
